• Join FlightAware (Why Join?)
  • Login
  • US Flag 
03:27AM EST


 

Airport Tracker/Info


-or-


 

Live Flight TrackerFlight Track Log ✈ SWA34 ✈ 06-May-2013 ✈ KSTL - KCMH

Flight Track Log - Related Links

Times and Time Zones

All times are in EDT time to prevent confusion due to time zone crossing. See the SWA34 flight status page for this flight to view local times or setup timezone preferences in your user account.

Time Position Orientation Groundspeed Altitude Reporting Facility
EDT Latitude Longitude Course Direction KTS MPH feet Rate Location/Type
08:11PM 38.8200 -90.4111 347° North 224 258 4,200  Level Kansas City Center
08:12PM 38.8769 -90.3881 17° North 228 262 7,400 2,580 Climbing Kansas City Center
08:13PM 38.8806 -90.2992 87° East 259 298 9,500 1,800 Climbing Kansas City Center
08:14PM 38.8678 -90.1914 99° East 294 338 11,200 1,740 Climbing Kansas City Center
08:15PM 38.8547 -90.0636 97° East 348 400 13,100 1,980 Climbing Kansas City Center
08:16PM 38.8389 -89.9292 99° East 372 428 15,400 2,100 Climbing Kansas City Center
08:17PM 38.8239 -89.7911 98° East 386 444 17,500 1,980 Climbing Kansas City Center
08:18PM 38.8050 -89.6303 99° East 392 451 19,500 1,740 Climbing Kansas City Center
08:19PM 38.7953 -89.4833 95° East 411 473 21,200 1,620 Climbing Kansas City Center
08:20PM 38.8153 -89.3256 81° East 416 479 22,900 1,320 Climbing Kansas City Center
08:22PM 38.8333 -89.1486 90° East  Level FlightAware Approximate
08:22PM 38.8525 -89.0256 90° East 433 498 25,400  Level Kansas City Center
08:23PM 38.8706 -88.8781 81° East 437 503 26,800 1,320 Climbing Kansas City Center
08:24PM 38.8917 -88.7269 80° East 435 501 28,200 1,380 Climbing Kansas City Center
08:25PM 38.9117 -88.5769 80° East 430 495 29,700 1,140 Climbing Kansas City Center
08:26PM 38.9408 -88.4364 75° East 421 484 30,600 960 Climbing Kansas City Center
08:27PM 38.9878 -88.3017 66° East 418 481 31,600 1,080 Climbing Indianapolis Center
08:28PM 39.0253 -88.1597 71° East 418 481 32,700 720 Climbing Indianapolis Center
08:30PM 39.1006 -87.8806 71° East 411 473 34,000 180 Climbing Indianapolis Center
08:31PM 39.1394 -87.7414 70° East 411 473 33,400 -540 Descending Indianapolis Center
08:32PM 39.1797 -87.5906 71° East 401 461 33,000 -600 Descending Indianapolis Center
08:35PM 39.2599 -87.3506 67° East  Level FlightAware Approximate
08:36PM 39.3097 -87.1839 67° East 420 483 31,000  Level Indianapolis Center
08:38PM 39.3981 -86.9144 67° East 408 470 31,000  Level Indianapolis Center
08:39PM 39.4414 -86.7811 67° East 404 465 31,000  Level Indianapolis Center
08:41PM 39.5375 -86.4831 67° East 413 475 31,000 -360 Level Indianapolis Center
08:42PM 39.5811 -86.3469 67° East 414 476 29,900 -1,020 Descending Indianapolis Center
08:43PM 39.6244 -86.2106 68° East 418 481 29,000 -480 Descending Indianapolis Center
08:44PM 39.6764 -86.0483 67° East 416 479 29,000  Level Indianapolis Center
08:45PM 39.7194 -85.9117 68° East 414 476 29,000  Level Indianapolis Center
08:46PM 39.7611 -85.7753 68° East 411 473 29,000  Level Indianapolis Center
08:47PM 39.8064 -85.6397 66° East 410 472 29,000  Level Indianapolis Center
08:48PM 39.8478 -85.5025 69° East 411 473 29,000  Level Indianapolis Center
08:49PM 39.8906 -85.3642 68° East 414 476 29,000  Level Indianapolis Center
08:51PM 39.9819 -85.0611 68° East 413 475 29,000  Level Indianapolis Center
08:52PM 40.0258 -84.9242 67° East 412 474 29,000 -480 Level Indianapolis Center
08:53PM 40.0631 -84.7919 70° East 416 479 28,100 -960 Descending Indianapolis Center
08:55PM 40.1131 -84.6043 69° East  Level FlightAware Approximate
08:55PM 40.1522 -84.4992 69° East 430 495 26,200  Level Indianapolis Center
08:57PM 40.2322 -84.1753 72° East 426 490 23,700 -1,620 Descending Indianapolis Center
08:58PM 40.2667 -84.0300 73° East 414 476 21,400 -2,520 Descending Indianapolis Center
08:59PM 40.3008 -83.8883 72° East 404 465 18,600 -2,700 Descending Indianapolis Center
09:00PM 40.3264 -83.7761 73° East 387 445 16,400 -2,700 Descending Indianapolis Center
09:01PM 40.3569 -83.6431 73° East 378 435 13,700 -2,100 Descending Indianapolis Center
09:02PM 40.3967 -83.4728 73° East 336 387 11,400 -1,440 Descending Indianapolis Center
09:03PM 40.3906 -83.3869 95° East 300 345 10,500 -1,140 Descending Indianapolis Center
09:04PM 40.3689 -83.2911 106° East 274 315 9,300 -1,560 Descending Indianapolis Center
09:05PM 40.3508 -83.1992 104° East 261 300 7,400 -1,740 Descending Indianapolis Center
09:06PM 40.3161 -83.1194 120° Southeast 266 306 5,800 -1,500 Descending Indianapolis Center
09:07PM 40.2433 -83.1189 180° South 258 297 4,400 -960 Descending Indianapolis Center
09:08PM 40.1722 -83.1186 180° South 256 295 3,900 -720 Descending Indianapolis Center
09:09PM 40.1086 -83.1206 181° South 241 277 3,000 -600 Descending Indianapolis Center
09:10PM 40.0581 -83.1072 169° South 207 238 2,900 -60 Descending Indianapolis Center
09:11PM 40.0175 -83.0494 132° Southeast 206 237 2,900 -360 Level Indianapolis Center
09:12PM 40.0000 -83.0078 119° Southeast 155 178 2,300 -840 Descending Indianapolis Center
09:13PM 39.9992 -82.9614 91° East 111 128 1,500 -780 Descending Indianapolis Center
09:14PM 39.9961 -82.9122 95° East 135 155 800 -480 Descending Indianapolis Center
09:14PM 39.9958 -82.9067 94° East 134 154 900 240 Climbing Indianapolis Center